Time;durP1;ratioP1;P1;durP2;ratioP2;P2;SDS_P1;SDS_P2;PMS_P1;PMS_P2;Temp;Humidity;BMP_temperature;BMP_pressure;BME280_temperature;BME280_humidity;BME280_pressure;Samples;Min_cycle;Max_cycle;Signal;HPM_P1;HPM_P2
2022/06/13 00:00:09;;;;;;;4.28;1.52;;;21.10;98.80;;;;;;4974921;28;20065;-66
2022/06/13 00:02:36;;;;;;;2.33;1.60;;;21.10;99.30;;;;;;4974334;28;20035;-65
2022/06/13 00:05:04;;;;;;;4.20;1.88;;;21.10;99.90;;;;;;4975027;28;20093;-65
2022/06/13 00:07:30;;;;;;;3.97;1.52;;;20.80;99.90;;;;;;4974733;28;20120;-65
2022/06/13 00:09:56;;;;;;;5.15;1.75;;;20.80;99.90;;;;;;4974889;28;20077;-65
2022/06/13 00:12:22;;;;;;;3.92;1.60;;;20.70;99.90;;;;;;4974803;28;20053;-65
2022/06/13 00:14:48;;;;;;;4.63;1.90;;;20.60;99.90;;;;;;4974606;28;20414;-65
2022/06/13 00:17:14;;;;;;;8.18;1.92;;;20.50;99.90;;;;;;4974627;28;20046;-65
2022/06/13 00:19:41;;;;;;;6.85;2.08;;;20.40;99.90;;;;;;4974727;28;20054;-65
2022/06/13 00:22:08;;;;;;;3.72;1.48;;;20.40;99.90;;;;;;4974635;28;20134;-66
2022/06/13 00:24:34;;;;;;;5.65;2.17;;;20.40;99.90;;;;;;4974526;28;20073;-65
2022/06/13 00:27:01;;;;;;;5.45;2.30;;;20.40;99.90;;;;;;4973309;28;20077;-66
2022/06/13 00:29:27;;;;;;;4.78;2.30;;;20.30;99.90;;;;;;4974907;28;20422;-66
2022/06/13 00:31:52;;;;;;;8.65;2.00;;;20.40;99.90;;;;;;4974231;28;20057;-65
2022/06/13 00:34:18;;;;;;;5.28;2.05;;;20.30;99.90;;;;;;4974418;28;20396;-66
2022/06/13 00:36:44;;;;;;;6.65;1.90;;;20.30;99.90;;;;;;4974347;28;20402;-66
2022/06/13 00:39:10;;;;;;;3.63;1.95;;;20.40;99.90;;;;;;4974311;28;20054;-65
2022/06/13 00:41:39;;;;;;;8.82;2.72;;;20.30;99.90;;;;;;4974158;28;20121;-65
2022/06/13 00:44:24;;;;;;;6.10;2.30;;;20.30;99.90;;;;;;4974210;28;20441;-66
2022/06/13 00:46:50;;;;;;;8.55;2.22;;;20.20;99.90;;;;;;4974186;28;20048;-65
2022/06/13 00:49:25;;;;;;;3.42;1.90;;;20.20;99.90;;;;;;4974155;28;20051;-65
2022/06/13 00:52:17;;;;;;;8.85;2.10;;;20.20;99.90;;;;;;4974237;28;20038;-65
2022/06/13 00:54:45;;;;;;;6.57;2.45;;;20.20;99.90;;;;;;4974293;28;20043;-66
2022/06/13 00:57:22;;;;;;;5.05;1.83;;;20.20;99.90;;;;;;4974261;28;20105;-65
2022/06/13 00:59:51;;;;;;;9.68;2.33;;;20.20;99.90;;;;;;4975597;28;20089;-65
2022/06/13 01:02:17;;;;;;;5.30;1.85;;;20.10;99.90;;;;;;4991695;28;20069;-65
2022/06/13 01:04:45;;;;;;;5.78;2.15;;;20.10;99.90;;;;;;4993104;28;20053;-66
2022/06/13 01:07:11;;;;;;;5.15;2.20;;;20.00;99.90;;;;;;4992972;28;20502;-65
2022/06/13 01:12:25;;;;;;;8.35;2.30;;;20.00;99.90;;;;;;4993264;28;20034;-66
2022/06/13 01:15:16;;;;;;;6.60;2.05;;;19.90;99.90;;;;;;4997385;28;20088;-65
2022/06/13 01:17:55;;;;;;;6.40;2.30;;;19.90;99.90;;;;;;4996535;28;20042;-65
2022/06/13 01:20:45;;;;;;;8.20;2.38;;;19.80;99.90;;;;;;4997431;28;20136;-65
2022/06/13 01:23:31;;;;;;;6.38;2.08;;;19.70;99.90;;;;;;4997238;28;20035;-66
2022/06/13 01:26:19;;;;;;;8.98;2.00;;;19.80;99.90;;;;;;4997182;28;20082;-66
2022/06/13 01:29:26;;;;;;;6.78;2.17;;;19.70;99.90;;;;;;4995851;28;20039;-65
2022/06/13 01:32:15;;;;;;;8.65;1.92;;;19.70;99.90;;;;;;4997054;28;20046;-65
2022/06/13 01:35:00;;;;;;;6.93;1.92;;;19.60;99.90;;;;;;4997136;28;20042;-65
2022/06/13 01:37:57;;;;;;;4.85;2.17;;;19.60;99.90;;;;;;4996889;28;20050;-65
2022/06/13 01:40:44;;;;;;;8.43;2.38;;;19.60;99.90;;;;;;4996968;28;20588;-65
2022/06/13 01:43:31;;;;;;;5.00;1.63;;;19.60;99.90;;;;;;4997126;28;20456;-65
2022/06/13 01:46:07;;;;;;;6.88;1.92;;;19.60;99.90;;;;;;4996988;28;20065;-66
2022/06/13 01:48:38;;;;;;;8.95;2.17;;;19.50;99.90;;;;;;4996978;28;20096;-65
2022/06/13 01:51:31;;;;;;;7.63;2.08;;;19.50;99.90;;;;;;4996737;28;20034;-66
2022/06/13 01:54:18;;;;;;;3.67;1.73;;;19.50;99.90;;;;;;4992258;28;20057;-66
2022/06/13 01:56:58;;;;;;;5.65;1.75;;;19.50;99.90;;;;;;4990984;28;20409;-65
2022/06/13 01:59:39;;;;;;;;;;;19.50;99.90;;;;;;4996759;28;20046;-65
2022/06/13 02:02:15;;;;;;;5.00;2.25;;;19.50;99.90;;;;;;4996819;28;20424;-65
2022/06/13 02:05:21;;;;;;;7.25;2.50;;;19.50;99.90;;;;;;4996740;28;20077;-66
2022/06/13 02:07:53;;;;;;;4.30;1.98;;;19.50;99.90;;;;;;4954976;28;20047;-65
2022/06/13 02:10:24;;;;;;;8.18;1.70;;;19.60;99.90;;;;;;4989432;28;20026;-65
2022/06/13 02:12:55;;;;;;;6.20;1.92;;;19.40;99.90;;;;;;4996601;28;20057;-65
2022/06/13 02:15:26;;;;;;;5.85;1.70;;;19.40;99.90;;;;;;4996456;28;20240;-65
2022/06/13 02:17:58;;;;;;;;;;;19.40;99.90;;;;;;4992184;28;20525;-65
2022/06/13 02:20:29;;;;;;;5.57;2.05;;;19.40;99.90;;;;;;4983370;28;20277;-65
2022/06/13 02:22:58;;;;;;;5.57;1.50;;;19.50;99.90;;;;;;4976773;28;20046;-66
2022/06/13 02:25:43;;;;;;;11.10;2.58;;;19.50;99.90;;;;;;4975803;28;20047;-66
2022/06/13 02:28:18;;;;;;;8.27;1.60;;;19.40;99.90;;;;;;4976616;28;20054;-66
2022/06/13 02:30:54;;;;;;;6.05;1.80;;;19.40;99.90;;;;;;4976380;28;20062;-66
2022/06/13 02:33:29;;;;;;;5.05;1.50;;;19.30;99.90;;;;;;4976365;28;20058;-65
2022/06/13 02:36:14;;;;;;;5.15;1.83;;;19.30;99.90;;;;;;4976286;28;20145;-65
2022/06/13 02:39:00;;;;;;;9.13;1.83;;;19.40;99.90;;;;;;4976589;28;20513;-65
2022/06/13 02:41:37;;;;;;;5.38;2.22;;;19.40;99.90;;;;;;4976607;28;20066;-66
2022/06/13 02:44:36;;;;;;;8.93;1.60;;;19.30;99.90;;;;;;4976476;28;20790;-66
2022/06/13 02:47:28;;;;;;;5.13;1.50;;;19.30;99.90;;;;;;4967478;28;20055;-65
2022/06/13 02:49:56;;;;;;;4.60;1.77;;;19.30;99.90;;;;;;4957542;28;20513;-66
2022/06/13 02:52:32;;;;;;;10.15;2.10;;;19.30;99.90;;;;;;4976288;28;20043;-66
2022/06/13 02:55:05;;;;;;;3.25;1.60;;;19.30;99.90;;;;;;4976325;28;20050;-66
2022/06/13 02:58:01;;;;;;;4.10;1.95;;;19.30;99.90;;;;;;4976234;28;20050;-66
2022/06/13 03:00:41;;;;;;;4.55;1.98;;;19.30;99.90;;;;;;4976025;28;20046;-66
2022/06/13 03:03:13;;;;;;;;;;;19.40;99.90;;;;;;4976773;28;20043;-65
2022/06/13 03:05:46;;;;;;;5.43;1.65;;;19.40;99.90;;;;;;4976228;28;19920;-65
2022/06/13 03:08:30;;;;;;;4.10;1.55;;;19.10;99.90;;;;;;4975952;28;20129;-66
2022/06/13 03:11:10;;;;;;;6.68;1.83;;;19.10;99.90;;;;;;4976051;28;20035;-66
2022/06/13 03:13:57;;;;;;;3.87;1.50;;;19.10;99.90;;;;;;4975944;28;20047;-66
2022/06/13 03:16:35;;;;;;;6.20;2.13;;;19.20;99.90;;;;;;4975850;28;20126;-66
2022/06/13 03:19:23;;;;;;;4.97;1.70;;;19.20;99.90;;;;;;4975823;28;20190;-65
2022/06/13 03:22:03;;;;;;;6.85;2.03;;;19.00;99.90;;;;;;4980072;28;20069;-65
2022/06/13 03:24:42;;;;;;;4.88;2.00;;;18.80;99.90;;;;;;4989876;28;20112;-65
2022/06/13 03:27:26;;;;;;;5.75;2.10;;;18.90;99.90;;;;;;4975698;28;20092;-65
2022/06/13 03:30:05;;;;;;;3.83;1.63;;;18.90;99.90;;;;;;4975896;28;20050;-65
2022/06/13 03:32:40;;;;;;;6.20;1.83;;;18.90;99.90;;;;;;4975609;28;20039;-65
2022/06/13 03:35:12;;;;;;;6.60;2.35;;;18.80;99.90;;;;;;4975404;28;20510;-65
2022/06/13 03:37:49;;;;;;;7.63;2.17;;;18.70;99.90;;;;;;4975609;28;20046;-66
2022/06/13 03:40:22;;;;;;;5.53;1.90;;;18.80;99.90;;;;;;4975478;28;20061;-66
2022/06/13 03:43:04;;;;;;;4.55;1.60;;;18.80;99.90;;;;;;4975047;28;20070;-65
2022/06/13 03:45:49;;;;;;;6.10;2.03;;;18.80;99.90;;;;;;4974938;28;20046;-65
2022/06/13 03:48:26;;;;;;;7.18;2.38;;;18.80;99.90;;;;;;4975190;28;20093;-65
2022/06/13 03:50:57;;;;;;;6.63;1.70;;;18.80;99.90;;;;;;4974931;28;20054;-65
2022/06/13 03:53:37;;;;;;;2.90;1.15;;;18.90;99.90;;;;;;4975095;28;20053;-65
2022/06/13 03:56:06;;;;;;;;;;;18.80;99.90;;;;;;4975482;28;20097;-66
2022/06/13 03:58:40;;;;;;;3.17;1.63;;;18.90;99.90;;;;;;4975165;28;20362;-65
2022/06/13 04:01:08;;;;;;;3.83;1.90;;;18.80;99.90;;;;;;4975167;28;20057;-65
2022/06/13 04:03:35;;;;;;;7.40;1.70;;;18.90;99.90;;;;;;4975123;28;20043;-65
2022/06/13 04:06:04;;;;;;;6.63;2.05;;;18.90;99.90;;;;;;4975007;28;20072;-65
2022/06/13 04:08:34;;;;;;;3.58;1.60;;;18.80;99.90;;;;;;4974910;28;20513;-66
2022/06/13 04:11:21;;;;;;;6.18;2.63;;;18.80;99.90;;;;;;4974858;28;20506;-65
2022/06/13 04:13:59;;;;;;;6.85;1.50;;;18.80;99.90;;;;;;4974751;28;20078;-65
2022/06/13 04:16:32;;;;;;;3.85;1.48;;;18.80;99.90;;;;;;4974665;28;20042;-65
2022/06/13 04:19:12;;;;;;;3.63;1.70;;;18.80;99.90;;;;;;4974663;28;20074;-66
2022/06/13 04:21:50;;;;;;;6.17;2.00;;;18.80;99.90;;;;;;4974692;28;20047;-65
2022/06/13 04:24:43;;;;;;;6.65;1.80;;;18.80;99.90;;;;;;4979212;28;20774;-65
2022/06/13 04:27:23;;;;;;;8.75;1.90;;;18.80;99.90;;;;;;4993764;28;20116;-65
2022/06/13 04:30:09;;;;;;;5.45;1.95;;;18.90;99.90;;;;;;4994131;28;20528;-65
2022/06/13 04:33:06;;;;;;;4.32;1.50;;;18.90;99.90;;;;;;4993977;28;20485;-66
2022/06/13 04:35:33;;;;;;;8.27;1.98;;;19.10;99.90;;;;;;4993767;28;20100;-65
2022/06/13 04:38:02;;;;;;;3.75;1.60;;;19.10;99.90;;;;;;4993926;28;20046;-66
2022/06/13 04:40:29;;;;;;;6.55;2.13;;;19.00;99.90;;;;;;4993956;28;20050;-65
2022/06/13 04:42:56;;;;;;;3.97;1.90;;;19.20;99.90;;;;;;4993853;28;20061;-65
2022/06/13 04:45:28;;;;;;;5.07;2.00;;;19.20;99.90;;;;;;4993907;28;20038;-66
2022/06/13 04:47:57;;;;;;;4.82;1.90;;;19.30;99.90;;;;;;4993483;28;20039;-66
2022/06/13 04:50:39;;;;;;;3.25;1.88;;;19.30;99.90;;;;;;4993777;28;20042;-66
2022/06/13 04:53:12;;;;;;;6.03;1.85;;;19.30;99.90;;;;;;4992453;28;20050;-66
2022/06/13 04:55:42;;;;;;;5.95;1.73;;;19.40;99.90;;;;;;4993701;28;20444;-65
2022/06/13 04:58:29;;;;;;;6.20;2.13;;;19.40;99.90;;;;;;4993648;28;20045;-66
2022/06/13 05:01:05;;;;;;;5.90;2.55;;;19.40;99.90;;;;;;4989323;28;20061;-65
2022/06/13 05:03:38;;;;;;;10.27;2.15;;;19.50;99.90;;;;;;4978857;28;20049;-65
2022/06/13 05:06:15;;;;;;;5.10;1.90;;;19.60;99.90;;;;;;4992256;28;20061;-66
2022/06/13 05:08:43;;;;;;;8.25;2.65;;;19.80;99.90;;;;;;4993754;28;20383;-65
2022/06/13 05:11:18;;;;;;;2.55;1.85;;;19.70;99.90;;;;;;4993777;28;20493;-65
2022/06/13 05:13:46;;;;;;;7.53;2.55;;;19.60;99.90;;;;;;4993490;28;20441;-65
2022/06/13 05:16:27;;;;;;;6.95;2.28;;;19.60;99.90;;;;;;4993430;28;20490;-65
2022/06/13 05:19:34;;;;;;;3.42;1.95;;;19.90;99.90;;;;;;4993439;28;20125;-65
2022/06/13 05:22:34;;;;;;;5.25;2.35;;;19.80;99.90;;;;;;4982407;28;20549;-65
2022/06/13 05:25:35;;;;;;;7.57;2.10;;;19.90;99.90;;;;;;4993555;28;20117;-65
2022/06/13 05:28:01;;;;;;;5.95;1.85;;;20.00;99.90;;;;;;4993308;28;20062;-66
2022/06/13 05:30:28;;;;;;;4.80;1.88;;;19.70;99.90;;;;;;4993138;28;20046;-65
2022/06/13 05:32:55;;;;;;;5.50;1.83;;;19.60;99.90;;;;;;4992301;28;20054;-65
2022/06/13 05:35:29;;;;;;;8.40;2.03;;;19.70;99.90;;;;;;4993308;28;20053;-65
2022/06/13 05:37:59;;;;;;;6.28;2.03;;;19.60;99.90;;;;;;4991348;28;20050;-65
2022/06/13 05:40:25;;;;;;;6.67;1.47;;;19.70;99.90;;;;;;4992821;28;20054;-66
2022/06/13 05:42:52;;;;;;;4.03;1.70;;;19.50;99.90;;;;;;4993402;28;20129;-65
2022/06/13 05:45:22;;;;;;;5.85;1.88;;;19.50;99.90;;;;;;4992871;28;20042;-66
2022/06/13 05:47:49;;;;;;;9.40;2.65;;;19.40;99.90;;;;;;4992622;28;20034;-66
2022/06/13 05:50:18;;;;;;;5.78;1.55;;;19.30;99.90;;;;;;4993202;28;20053;-66
2022/06/13 05:52:44;;;;;;;4.50;1.92;;;19.20;99.90;;;;;;4990796;28;20083;-65
2022/06/13 05:55:11;;;;;;;3.63;1.65;;;19.20;99.90;;;;;;4989326;28;20112;-65
2022/06/13 05:57:38;;;;;;;7.03;2.17;;;19.30;99.90;;;;;;4990767;28;20502;-64
2022/06/13 06:00:07;;;;;;;4.93;1.98;;;19.40;99.90;;;;;;4991658;28;20133;-64
2022/06/13 06:02:33;;;;;;;7.07;1.83;;;19.50;99.90;;;;;;4994206;28;20030;-64
2022/06/13 06:04:59;;;;;;;7.40;1.92;;;19.50;99.90;;;;;;4993632;28;20514;-64
2022/06/13 06:07:25;;;;;;;6.97;1.80;;;19.50;99.90;;;;;;4992618;28;20089;-65
2022/06/13 06:09:51;;;;;;;7.07;1.88;;;19.40;99.90;;;;;;4993387;28;20125;-65
2022/06/13 06:12:16;;;;;;;2.88;1.55;;;19.30;99.90;;;;;;4994087;28;20126;-65
2022/06/13 06:14:43;;;;;;;9.80;1.98;;;19.30;99.90;;;;;;4994626;28;20133;-65
2022/06/13 06:17:08;;;;;;;9.32;2.05;;;19.10;99.90;;;;;;4994853;28;20030;-65
2022/06/13 06:19:34;;;;;;;7.28;2.08;;;19.10;99.90;;;;;;4994672;28;20054;-65
2022/06/13 06:22:00;;;;;;;14.30;2.03;;;19.10;99.90;;;;;;4994026;28;20383;-65
2022/06/13 06:24:25;;;;;;;6.32;1.85;;;19.20;99.90;;;;;;4993858;28;20046;-65
2022/06/13 06:26:52;;;;;;;6.95;2.00;;;19.30;99.90;;;;;;4993049;28;20050;-65
2022/06/13 06:29:17;;;;;;;6.75;2.03;;;19.20;99.90;;;;;;4995705;28;20042;-65
2022/06/13 06:31:43;;;;;;;5.40;1.60;;;19.20;99.90;;;;;;4995831;28;20038;-65
2022/06/13 06:34:09;;;;;;;4.95;1.85;;;19.20;99.90;;;;;;4996228;28;20061;-65
2022/06/13 06:36:35;;;;;;;5.28;1.60;;;19.20;99.90;;;;;;4995956;28;20050;-65
2022/06/13 06:39:01;;;;;;;4.20;1.48;;;19.30;99.90;;;;;;4996212;28;20104;-65
2022/06/13 06:41:27;;;;;;;6.43;1.58;;;19.40;99.90;;;;;;4996216;28;20039;-65
2022/06/13 06:43:52;;;;;;;14.38;2.55;;;19.40;99.90;;;;;;4996109;28;20044;-65
2022/06/13 06:46:18;;;;;;;6.00;2.03;;;19.40;99.90;;;;;;4996105;28;20046;-65
2022/06/13 06:48:44;;;;;;;5.20;2.03;;;19.30;99.90;;;;;;4996157;28;20497;-65
2022/06/13 06:51:14;;;;;;;7.47;1.88;;;19.40;99.90;;;;;;4995928;28;20038;-65
2022/06/13 07:01:55;;;;;;;7.93;2.40;;;19.90;99.90;;;;;;4995798;28;20041;-65
2022/06/13 07:04:21;;;;;;;6.82;2.00;;;19.90;99.90;;;;;;4995807;28;20042;-65
2022/06/13 07:06:46;;;;;;;5.53;1.67;;;19.90;99.90;;;;;;4995744;28;20046;-65
2022/06/13 07:09:12;;;;;;;7.30;2.10;;;19.60;99.90;;;;;;4995575;28;20065;-65
2022/06/13 07:11:54;;;;;;;6.53;1.50;;;19.60;99.90;;;;;;4995542;28;20034;-65
2022/06/13 07:14:34;;;;;;;7.97;1.80;;;19.60;99.90;;;;;;4995511;28;20053;-65
2022/06/13 07:17:03;;;;;;;7.20;2.03;;;19.70;99.90;;;;;;4995581;28;20533;-65
2022/06/13 07:19:29;;;;;;;8.15;2.33;;;19.70;99.90;;;;;;4995465;28;20038;-65
2022/06/13 07:21:56;;;;;;;12.82;1.90;;;19.70;99.90;;;;;;4995495;28;20065;-65
2022/06/13 07:24:22;;;;;;;4.90;1.73;;;19.90;99.90;;;;;;4995359;28;20042;-66
2022/06/13 07:26:49;;;;;;;7.63;2.22;;;20.30;99.90;;;;;;4995468;28;20069;-66
2022/06/13 07:29:17;;;;;;;6.00;1.35;;;20.80;99.90;;;;;;4995414;28;20081;-65
2022/06/13 07:31:48;;;;;;;7.38;2.15;;;20.60;99.90;;;;;;4995374;28;20074;-65
2022/06/13 07:34:18;;;;;;;6.28;2.00;;;20.50;99.90;;;;;;4995418;28;20506;-65
2022/06/13 07:36:44;;;;;;;4.85;1.27;;;20.40;99.90;;;;;;4995073;28;20537;-65
2022/06/13 07:39:10;;;;;;;10.50;1.92;;;20.20;99.90;;;;;;4994712;28;20073;-65
2022/06/13 07:41:38;;;;;;;5.07;1.58;;;20.20;99.90;;;;;;4994912;28;20042;-65
2022/06/13 07:44:05;;;;;;;4.03;1.63;;;20.30;99.90;;;;;;4994994;28;20509;-65
2022/06/13 07:46:32;;;;;;;4.18;1.42;;;20.10;99.90;;;;;;4995001;28;20038;-65
2022/06/13 07:48:59;;;;;;;6.80;1.85;;;20.10;99.90;;;;;;4995044;28;20048;-65
2022/06/13 07:51:26;;;;;;;6.15;2.25;;;20.20;99.90;;;;;;4994738;28;20421;-65
2022/06/13 07:53:53;;;;;;;3.95;1.75;;;20.30;99.90;;;;;;4992634;28;20066;-65
2022/06/13 07:56:22;;;;;;;6.55;1.90;;;20.50;99.90;;;;;;4985646;28;20092;-65
2022/06/13 07:58:49;;;;;;;3.53;1.30;;;20.30;99.90;;;;;;4984036;28;20042;-65
2022/06/13 08:01:17;;;;;;;8.80;1.92;;;20.40;99.90;;;;;;4978606;28;20093;-65
2022/06/13 08:03:43;;;;;;;5.40;2.00;;;20.30;99.90;;;;;;4975043;28;20035;-65
2022/06/13 08:06:11;;;;;;;5.45;1.80;;;20.40;99.90;;;;;;4982650;28;20421;-65
2022/06/13 08:08:40;;;;;;;5.82;1.70;;;20.50;99.90;;;;;;4985077;28;20035;-65
2022/06/13 08:11:08;;;;;;;7.00;1.95;;;20.60;99.90;;;;;;4991837;28;20038;-65
2022/06/13 08:13:35;;;;;;;4.25;1.50;;;20.80;99.90;;;;;;4993856;28;20062;-65
2022/06/13 08:16:01;;;;;;;6.82;1.77;;;20.80;99.90;;;;;;4993729;28;21375;-65
2022/06/13 08:18:28;;;;;;;8.38;1.83;;;21.00;99.90;;;;;;4993661;28;20042;-65
2022/06/13 08:20:54;;;;;;;6.60;2.10;;;21.20;99.90;;;;;;4993816;28;20583;-65
2022/06/13 08:23:23;;;;;;;5.22;1.60;;;21.30;99.90;;;;;;4993428;28;20046;-65
2022/06/13 08:25:49;;;;;;;3.83;1.30;;;21.10;99.90;;;;;;4982007;28;20058;-65
2022/06/13 08:28:18;;;;;;;7.70;1.50;;;21.00;99.90;;;;;;4981869;28;20038;-65
2022/06/13 08:30:57;;;;;;;6.63;2.10;;;21.20;99.90;;;;;;4984480;28;20046;-65
2022/06/13 08:33:24;;;;;;;5.90;1.67;;;21.00;99.90;;;;;;4986014;28;20049;-65
2022/06/13 08:35:50;;;;;;;7.07;1.88;;;21.20;99.90;;;;;;4988531;28;20383;-65
2022/06/13 08:38:17;;;;;;;4.50;1.20;;;21.40;99.90;;;;;;4974549;28;20394;-65
2022/06/13 08:40:57;;;;;;;7.57;1.67;;;21.70;99.90;;;;;;4974504;28;20050;-65
2022/06/13 08:43:38;;;;;;;14.68;1.50;;;21.70;99.40;;;;;;4978375;28;20402;-65
2022/06/13 08:46:31;;;;;;;6.55;2.08;;;21.80;99.30;;;;;;4991554;28;20038;-65
2022/06/13 08:49:06;;;;;;;4.20;1.48;;;21.70;98.50;;;;;;4989723;28;20046;-65
2022/06/13 08:51:58;;;;;;;10.82;1.83;;;22.10;99.20;;;;;;4992533;28;20038;-65
2022/06/13 08:54:31;;;;;;;3.70;1.67;;;22.00;98.50;;;;;;4989071;28;20052;-65
2022/06/13 08:57:00;;;;;;;6.28;1.58;;;22.10;98.10;;;;;;4998082;28;20125;-65
2022/06/13 08:59:34;;;;;;;4.07;1.25;;;22.40;98.70;;;;;;4994157;28;20046;-66
2022/06/13 09:02:22;;;;;;;7.75;1.67;;;22.80;97.50;;;;;;4991410;28;20073;-65
2022/06/13 09:05:14;;;;;;;5.88;1.73;;;22.60;97.80;;;;;;4988763;28;20042;-66
2022/06/13 09:07:43;;;;;;;4.80;1.80;;;22.80;97.60;;;;;;4988395;28;20053;-66
2022/06/13 09:10:41;;;;;;;5.57;1.50;;;23.50;97.50;;;;;;4989971;28;20133;-66
2022/06/13 09:13:12;;;;;;;4.47;1.90;;;23.10;96.80;;;;;;4990615;28;20030;-66
2022/06/13 09:16:04;;;;;;;6.38;1.48;;;23.30;97.30;;;;;;4989832;28;20045;-66
2022/06/13 09:18:39;;;;;;;6.88;1.88;;;23.20;96.50;;;;;;4990527;28;20046;-66
2022/06/13 09:21:09;;;;;;;10.50;1.63;;;22.90;97.20;;;;;;4991354;28;20429;-66
2022/06/13 09:23:48;;;;;;;5.70;1.83;;;22.50;96.50;;;;;;4991837;28;20581;-66
2022/06/13 09:26:37;;;;;;;6.95;1.73;;;22.40;96.40;;;;;;4991784;28;20093;-66
2022/06/13 09:29:26;;;;;;;5.85;2.05;;;22.80;96.20;;;;;;4986370;28;20521;-66
2022/06/13 09:32:16;;;;;;;4.53;1.60;;;22.40;96.00;;;;;;4991045;28;20046;-66
2022/06/13 09:34:52;;;;;;;8.23;2.05;;;22.50;96.00;;;;;;4993854;28;20528;-65
2022/06/13 09:37:41;;;;;;;4.43;1.80;;;23.00;96.00;;;;;;4990655;28;20460;-66
2022/06/13 09:40:10;;;;;;;3.83;1.70;;;23.40;95.70;;;;;;4986977;28;20108;-66
2022/06/13 09:43:13;;;;;;;7.22;1.67;;;24.00;95.40;;;;;;4991997;28;20274;-66
2022/06/13 09:45:49;;;;;;;5.32;1.92;;;24.20;95.80;;;;;;4943383;28;20429;-66
2022/06/13 09:48:29;;;;;;;10.32;1.80;;;24.00;95.60;;;;;;4981118;28;20038;-65
2022/06/13 09:50:55;;;;;;;;;;;23.90;95.20;;;;;;4993534;28;20046;-65
2022/06/13 09:53:32;;;;;;;8.88;2.25;;;23.50;94.50;;;;;;4995387;28;19918;-66
2022/06/13 09:56:28;;;;;;;5.60;1.60;;;23.80;95.30;;;;;;4984920;28;20050;-66
2022/06/13 09:59:11;;;;;;;6.82;1.83;;;23.80;95.70;;;;;;4993440;28;20128;-66
2022/06/13 10:02:01;;;;;;;4.80;1.77;;;23.90;95.60;;;;;;4994949;28;20074;-66
2022/06/13 10:04:51;;;;;;;5.63;1.80;;;23.70;95.00;;;;;;4994895;28;20081;-66
2022/06/13 10:07:22;;;;;;;5.32;1.42;;;23.70;94.50;;;;;;4994051;28;20034;-66
2022/06/13 10:10:10;;;;;;;8.32;1.92;;;24.10;95.20;;;;;;4994072;28;20397;-66
2022/06/13 10:13:01;;;;;;;8.05;2.08;;;23.70;95.20;;;;;;4991988;28;20548;-66
2022/06/13 10:15:48;;;;;;;;;;;23.70;99.90;;;;;;4993597;28;20440;-66
2022/06/13 10:18:32;;;;;;;4.75;1.50;;;24.00;94.30;;;;;;4991793;28;19913;-66
2022/06/13 10:21:27;;;;;;;6.22;1.80;;;24.20;95.10;;;;;;4993869;28;20058;-66
2022/06/13 10:24:35;;;;;;;4.28;1.92;;;24.30;94.50;;;;;;4972800;28;20071;-65
2022/06/13 10:27:38;;;;;;;8.48;2.28;;;24.30;94.40;;;;;;4983762;28;20593;-66
2022/06/13 10:30:13;;;;;;;8.23;2.03;;;24.70;93.90;;;;;;4990721;28;20042;-66
2022/06/13 10:32:59;;;;;;;6.57;1.80;;;24.00;95.80;;;;;;4994462;28;20038;-66
2022/06/13 10:35:36;;;;;;;6.18;1.95;;;23.80;99.90;;;;;;4986605;28;20042;-66
2022/06/13 10:38:12;;;;;;;8.57;2.33;;;24.00;99.40;;;;;;4993552;28;20046;-66
2022/06/13 10:40:40;;;;;;;8.10;1.95;;;24.00;93.70;;;;;;4993507;28;20502;-66
2022/06/13 10:43:06;;;;;;;9.38;1.98;;;23.90;93.40;;;;;;4994459;28;20038;-66
2022/06/13 10:45:38;;;;;;;15.63;2.33;;;23.90;93.40;;;;;;4993317;28;20517;-66
2022/06/13 10:48:17;;;;;;;6.45;1.80;;;23.90;93.50;;;;;;4994084;28;20049;-65
2022/06/13 10:50:54;;;;;;;8.35;1.77;;;23.60;93.80;;;;;;4993339;28;20042;-64
2022/06/13 10:53:33;;;;;;;5.07;1.77;;;23.70;93.20;;;;;;4994735;28;20546;-65
2022/06/13 10:56:01;;;;;;;6.65;1.77;;;24.00;93.70;;;;;;4990907;28;20053;-65
2022/06/13 10:58:48;;;;;;;8.13;2.33;;;24.20;94.00;;;;;;4993736;28;20408;-65
2022/06/13 11:01:23;;;;;;;9.13;1.88;;;24.00;93.60;;;;;;4993826;28;20103;-64
2022/06/13 11:04:15;;;;;;;9.55;2.45;;;24.10;93.30;;;;;;4993893;28;20046;-64
2022/06/13 11:06:47;;;;;;;11.30;4.47;;;24.70;93.40;;;;;;4994253;28;20046;-64
2022/06/13 11:09:42;;;;;;;5.82;1.50;;;25.10;93.60;;;;;;4993738;28;20042;-64
2022/06/13 11:12:20;;;;;;;10.98;2.97;;;24.90;93.20;;;;;;4993223;28;20038;-64
2022/06/13 11:24:29;;;;;;;4.32;1.88;;;24.00;93.20;;;;;;4994669;28;20041;-63
2022/06/13 11:29:40;;;;;;;7.15;2.00;;;23.60;94.00;;;;;;4994105;28;20034;-64
2022/06/13 11:32:20;;;;;;;7.38;2.85;;;23.20;93.70;;;;;;4990609;28;20387;-64
2022/06/13 11:34:46;;;;;;;6.88;2.17;;;23.60;94.10;;;;;;4980817;28;20042;-64
2022/06/13 11:37:23;;;;;;;6.45;1.85;;;24.10;93.60;;;;;;4992621;28;20049;-64
2022/06/13 11:39:51;;;;;;;6.22;1.83;;;23.90;93.40;;;;;;4992349;28;20042;-65
2022/06/13 11:42:23;;;;;;;10.00;2.00;;;24.30;92.90;;;;;;4988429;28;20480;-65
2022/06/13 11:44:56;;;;;;;8.20;2.38;;;24.40;93.50;;;;;;4976529;28;20034;-65
2022/06/13 11:47:23;;;;;;;7.15;2.20;;;24.30;93.00;;;;;;4990920;28;20108;-64
2022/06/13 11:49:55;;;;;;;5.45;1.92;;;24.40;93.20;;;;;;4992628;28;20049;-64
2022/06/13 11:55:25;;;;;;;5.05;1.80;;;24.30;92.40;;;;;;4972890;28;20050;-65
2022/06/13 11:57:59;;;;;;;5.15;1.80;;;24.40;93.40;;;;;;4972496;28;20074;-65
2022/06/13 12:00:37;;;;;;;4.18;1.52;;;25.50;95.50;;;;;;4974112;28;20156;-65
2022/06/13 12:03:14;;;;;;;4.13;1.83;;;25.10;91.90;;;;;;4973212;28;20502;-64
2022/06/13 12:05:40;;;;;;;8.25;2.50;;;24.80;92.30;;;;;;4972753;28;20039;-65
2022/06/13 12:08:14;;;;;;;5.05;1.95;;;24.70;92.70;;;;;;4978037;28;20045;-64
2022/06/13 12:11:01;;;;;;;4.53;1.60;;;24.70;93.20;;;;;;4973877;28;20216;-65
2022/06/13 12:13:30;;;;;;;8.40;2.78;;;24.60;93.00;;;;;;4974331;28;20517;-64
2022/06/13 12:16:00;;;;;;;3.67;1.60;;;24.60;92.00;;;;;;4974780;28;20042;-64
2022/06/13 12:18:35;;;;;;;6.55;2.08;;;24.90;92.70;;;;;;4985279;28;20038;-64
2022/06/13 12:21:19;;;;;;;7.47;1.77;;;24.70;92.00;;;;;;4983029;28;20058;-64
2022/06/13 12:24:08;;;;;;;4.80;1.80;;;24.30;92.50;;;;;;4993527;28;20043;-65
2022/06/13 12:26:36;;;;;;;5.68;1.98;;;24.30;92.50;;;;;;4993120;28;20540;-65
2022/06/13 12:29:17;;;;;;;8.82;1.80;;;24.50;92.30;;;;;;4993375;28;20070;-64
2022/06/13 12:32:12;;;;;;;3.67;1.75;;;24.70;92.60;;;;;;4994183;28;20048;-65
2022/06/13 12:34:38;;;;;;;8.77;2.40;;;24.60;92.00;;;;;;4983293;28;20581;-65
2022/06/13 12:37:16;;;;;;;4.85;1.75;;;25.00;92.40;;;;;;4993948;28;20122;-64
2022/06/13 12:40:00;;;;;;;7.22;1.95;;;25.20;92.10;;;;;;4993504;28;20529;-65
2022/06/13 12:42:52;;;;;;;3.30;1.75;;;24.70;91.70;;;;;;4994019;28;20077;-65
2022/06/13 12:45:33;;;;;;;6.80;2.00;;;24.60;92.00;;;;;;4994085;28;20069;-65
2022/06/13 12:48:26;;;;;;;;;;;24.90;91.60;;;;;;4994596;28;20046;-65
2022/06/13 12:51:06;;;;;;;5.78;1.90;;;24.90;91.80;;;;;;4994139;28;19914;-65
2022/06/13 12:54:00;;;;;;;6.43;1.80;;;25.00;91.90;;;;;;4993784;28;20053;-65
2022/06/13 12:56:53;;;;;;;5.72;1.67;;;25.40;92.00;;;;;;4993772;28;20041;-65
2022/06/13 12:59:32;;;;;;;3.50;1.88;;;25.20;91.40;;;;;;4993821;28;20053;-64
2022/06/13 13:02:21;;;;;;;6.95;1.75;;;25.20;91.80;;;;;;4993697;28;20121;-64
2022/06/13 13:05:05;;;;;;;6.88;2.10;;;25.30;91.00;;;;;;4993876;28;20469;-64
2022/06/13 13:07:49;;;;;;;12.98;2.75;;;25.20;91.70;;;;;;4990113;28;20042;-64
2022/06/13 13:10:33;;;;;;;4.90;2.15;;;25.20;91.50;;;;;;4990309;28;20169;-64
2022/06/13 13:13:23;;;;;;;7.40;2.45;;;25.50;91.00;;;;;;4992158;28;20115;-66
2022/06/13 13:16:08;;;;;;;7.30;2.03;;;25.60;90.50;;;;;;4966118;28;20030;-64
2022/06/13 13:18:56;;;;;;;9.05;2.03;;;25.50;90.90;;;;;;4993402;28;20046;-64
2022/06/13 13:21:50;;;;;;;6.90;2.17;;;25.30;91.40;;;;;;4993590;28;20074;-64
2022/06/13 13:24:40;;;;;;;10.45;2.60;;;25.30;90.80;;;;;;4965402;28;20042;-64
2022/06/13 13:27:10;;;;;;;5.53;2.10;;;25.10;90.90;;;;;;4992012;28;20052;-64
2022/06/13 13:29:42;;;;;;;;;;;25.30;91.70;;;;;;4992311;28;20486;-64
2022/06/13 13:32:17;;;;;;;7.78;2.03;;;25.20;90.60;;;;;;4991660;28;20333;-64
2022/06/13 13:34:48;;;;;;;8.15;2.53;;;24.70;91.50;;;;;;4991212;28;20038;-64
2022/06/13 13:37:39;;;;;;;12.88;2.10;;;24.60;91.00;;;;;;4991275;28;20046;-64
2022/06/13 13:40:33;;;;;;;5.43;2.38;;;24.30;91.40;;;;;;4992376;28;20391;-63
2022/06/13 13:43:19;;;;;;;4.57;2.10;;;24.10;91.20;;;;;;4993298;28;20081;-64
2022/06/13 13:45:57;;;;;;;6.70;2.22;;;24.80;92.10;;;;;;4990940;28;20042;-64
2022/06/13 13:48:57;;;;;;;11.75;2.95;;;25.20;91.20;;;;;;4991651;28;20041;-64
2022/06/13 13:51:28;;;;;;;10.15;2.40;;;25.50;91.10;;;;;;4941908;28;20038;-65
2022/06/13 13:54:11;;;;;;;3.63;1.88;;;25.50;90.50;;;;;;4991300;28;20528;-64
2022/06/13 13:56:45;;;;;;;5.15;2.03;;;;;;;;;;4991535;28;20045;-64
2022/06/13 13:59:17;;;;;;;3.45;1.88;;;24.80;99.60;;;;;;4991220;28;20050;-64